Latest Weather Observations for Truscott

IDD60801

Issued at 7:31 pm CST Saturday 31 January 2015 (issued every 30 minutes, with the page automatically refreshed every 10 minutes)

About weather observations | Map of weather stations | Latest weather observations for NT | Other Formats
Station Details ID: 001020 Name: TRUSCOTT Lat: -14.09 Lon: 126.39 Height: 51.0 m
Data from the previous 72 hours. | See also: Recent months at Truscott
Date/Time
CST
Temp
°C
App
Temp
°C
Dew
Point
Rel
Hum
%
Delta-T
°C
Wind Press
QNH
hPa
Press
MSL
hPa
Rain
since 9 am
mm
Dir
 
Spd
km/h
Gust
km/h
Spd
kts
Gust
kts
31/07:30pm 29.3 31.4 23.7 72 3.9 W 19 28 10 15 1006.6 1006.0 0.0
31/07:00pm 30.0 31.9 23.4 67 4.6 W 19 30 10 16 1006.1 - 0.0
31/06:30pm 30.3 31.8 23.0 65 5.0 W 20 32 11 17 1006.0 - 0.0
31/06:00pm 30.1 31.5 23.5 67 4.6 WSW 22 30 12 16 1005.7 - 0.0
31/05:30pm 30.2 31.3 23.6 67 4.6 W 24 35 13 19 1005.4 - 0.0
31/05:00pm 30.5 32.7 23.9 68 4.6 W 19 30 10 16 1005.7 - 0.0
31/04:30pm 30.1 31.9 23.5 67 4.6 W 20 32 11 17 1006.2 1005.6 0.0
31/04:00pm 30.3 32.3 24.0 69 4.4 W 20 30 11 16 1006.7 - 0.0
31/03:30pm 30.2 31.3 23.1 65 4.9 W 22 33 12 18 1006.9 - 0.0
31/03:00pm 30.7 31.5 23.1 64 5.2 W 24 33 13 18 1007.2 - 0.0
31/02:30pm 31.2 32.2 22.8 61 5.8 W 22 33 12 18 1007.5 - 0.0
31/02:00pm 31.1 31.5 22.4 60 5.9 W 24 35 13 19 1007.8 - 0.0
31/01:30pm 31.6 33.2 22.9 60 6.0 W 19 30 10 16 1008.2 1007.6 0.0
31/01:00pm 31.4 31.7 21.6 56 6.6 W 22 33 12 18 1008.7 - 0.0
31/12:30pm 30.7 32.4 23.1 64 5.2 W 19 28 10 15 1008.8 - 0.0
31/12:00pm 30.7 32.5 22.6 62 5.5 W 17 26 9 14 1009.2 - 0.0
31/11:30am 30.0 32.3 23.4 67 4.6 W 17 28 9 15 1009.7 - 0.0
31/11:00am 30.6 32.7 22.5 62 5.5 WSW 15 26 8 14 1009.7 - 0.0
31/10:30am 30.3 31.7 21.9 60 5.7 WSW 17 30 9 16 1009.8 1009.2 2.0
31/10:00am 29.7 31.3 22.2 64 5.1 WSW 17 24 9 13 1009.8 - 2.0
31/09:30am 29.1 31.3 23.3 71 4.0 WSW 17 24 9 13 1009.8 - 1.8
31/09:00am 28.8 31.5 23.5 73 3.6 WSW 15 20 8 11 1009.7 - 1.8
31/08:30am 28.6 30.8 22.6 70 4.1 WSW 15 24 8 13 1009.4 - 1.8
31/08:00am 27.8 32.2 24.4 82 2.4 SW 9 13 5 7 1008.8 - 1.8
31/07:30am 26.7 31.8 24.9 90 1.3 SW 7 11 4 6 1008.5 1007.9 1.8
31/07:00am 26.2 30.8 24.8 92 1.0 SW 9 11 5 6 1008.3 - 1.8
31/06:30am 26.4 31.0 24.8 91 1.1 SW 9 11 5 6 1008.2 - 1.8
31/06:00am 26.6 31.1 24.6 89 1.4 SW 9 13 5 7 1007.9 - 1.8
31/05:30am 26.7 31.3 24.7 89 1.4 SW 9 13 5 7 1007.9 - 1.8
31/05:00am 26.7 30.9 24.7 89 1.4 SW 11 15 6 8 1007.9 - 1.8
31/04:30am 26.6 30.8 24.8 90 1.3 SW 11 15 6 8 1007.7 1007.1 1.8
31/04:00am 26.7 31.8 24.9 90 1.3 SW 7 9 4 5 1008.0 - 1.8
31/03:30am 26.7 32.0 25.3 92 1.0 SW 7 9 4 5 1007.9 - 1.8
31/03:00am 26.8 32.2 25.2 91 1.1 WSW 6 9 3 5 1007.9 - 1.8
31/02:30am 26.4 32.1 25.0 92 1.0 WSW 4 9 2 5 1007.8 - 1.8
31/02:00am 26.6 31.7 25.0 91 1.1 WSW 7 9 4 5 1008.2 - 1.8
31/01:30am 26.2 31.5 25.2 94 0.7 WSW 7 11 4 6 1008.2 1007.6 1.8
31/01:00am 25.5 31.8 24.8 96 0.5 CALM 0 0 0 0 1008.6 - 1.8
31/12:30am 25.5 31.4 24.1 92 1.0 CALM 0 7 0 4 1009.0 - 1.8
31/12:00am 25.4 27.6 24.0 92 1.0 WNW 19 30 10 16 1009.5 - 1.4
 
Date/Time
CST
Temp
°C
App
Temp
°C
Dew
Point
Rel
Hum
%
Delta-T
°C
Wind Press
QNH
hPa
Press
MSL
hPa
Rain
since 9 am
mm
Dir
 
Spd
km/h
Gust
km/h
Spd
kts
Gust
kts
30/11:30pm 26.1 28.8 23.4 85 1.8 W 15 28 8 15 1009.5 - 0.0
30/11:00pm 28.5 31.8 24.5 79 2.8 W 15 24 8 13 1009.3 - 0.0
30/10:30pm 28.6 32.5 24.8 80 2.7 W 13 19 7 10 1008.9 1008.3 0.0
30/10:00pm 28.5 33.0 23.9 76 3.2 WSW 7 11 4 6 1008.5 - 0.0
30/09:30pm 28.5 32.4 23.6 75 3.4 WSW 9 13 5 7 1008.2 - 0.0
30/09:00pm 28.5 32.3 23.4 74 3.5 WSW 9 17 5 9 1007.6 - 0.0
30/08:30pm 28.6 32.3 23.3 73 3.6 WSW 9 13 5 7 1007.0 - 0.0
30/08:00pm 28.8 31.7 23.2 71 3.8 WSW 13 20 7 11 1006.6 - 0.0
30/07:30pm 29.0 31.7 23.4 72 3.9 W 15 22 8 12 1006.2 1005.6 0.0
30/07:00pm 29.7 31.3 22.9 67 4.7 W 19 24 10 13 1005.8 - 0.0
30/06:30pm 30.0 32.0 22.9 65 4.9 W 17 26 9 14 1005.4 - 0.0
30/06:00pm 30.3 32.6 23.5 67 4.7 WNW 17 28 9 15 1005.3 - 0.0
30/05:30pm 29.9 31.7 23.6 69 4.4 W 20 32 11 17 1005.4 - 0.0
30/05:00pm 30.2 32.2 23.9 69 4.4 W 20 28 11 15 1005.7 - 0.0
30/04:30pm 30.5 31.9 22.9 64 5.2 W 20 30 11 16 1005.9 1005.3 0.0
30/04:00pm 30.6 31.4 22.5 62 5.5 W 22 32 12 17 1005.6 - 0.0
30/03:30pm 31.6 33.3 23.4 61 5.7 W 20 33 11 18 1005.8 - 0.0
30/03:00pm 31.8 34.0 23.9 63 5.5 W 19 28 10 15 1006.0 - 0.0
30/02:30pm 30.9 32.1 22.5 61 5.7 W 20 32 11 17 1006.2 - 0.0
30/02:00pm 31.4 32.4 22.1 57 6.3 W 20 30 11 16 1006.9 - 0.0
30/01:30pm 31.1 32.4 21.6 57 6.4 W 17 28 9 15 1007.4 1006.8 0.0
30/01:00pm 31.6 32.7 21.2 54 7.0 W 17 26 9 14 1007.8 - 0.0
30/12:30pm 31.3 32.4 22.0 57 6.3 WSW 19 26 10 14 1008.3 - 0.0
30/12:00pm 30.5 32.4 22.1 61 5.7 W 15 20 8 11 1008.5 - 0.0
30/11:30am 30.1 33.5 23.3 67 4.7 W 11 20 6 11 1009.0 - 0.0
30/11:00am 29.5 33.2 23.9 72 3.9 WNW 11 17 6 9 1009.2 - 0.0
30/10:30am 29.1 31.7 22.6 68 4.4 W 13 20 7 11 1009.3 1008.7 0.0
30/10:00am 28.6 31.9 22.6 70 4.1 W 9 15 5 8 1008.9 - 0.0
30/09:30am 27.9 31.1 22.4 72 3.7 W 9 11 5 6 1008.9 - 0.0
30/09:00am 27.2 30.2 21.9 73 3.6 W 9 13 5 7 1008.6 - 0.0
30/08:30am 26.8 30.1 22.6 78 2.8 WSW 9 11 5 6 1008.0 - 0.0
30/08:00am 26.4 29.9 22.9 81 2.4 W 9 11 5 6 1007.7 - 0.0
30/07:30am 25.5 28.6 22.8 85 1.8 WSW 11 15 6 8 1007.6 1007.0 0.0
30/07:00am 25.4 29.2 22.7 85 1.8 SW 7 11 4 6 1007.1 - 0.0
30/06:30am 25.4 29.3 22.9 86 1.7 W 7 9 4 5 1006.5 - 0.0
30/06:00am 24.9 29.2 23.3 91 1.1 WSW 6 7 3 4 1006.4 - 0.0
30/05:30am 25.6 29.0 22.7 84 2.0 SSW 9 11 5 6 1006.1 - 0.0
30/05:00am 25.3 28.8 22.8 86 1.7 SW 9 11 5 6 1006.1 - 0.0
30/04:30am 25.6 30.3 23.3 87 1.6 ESE 4 7 2 4 1006.0 1005.4 0.0
30/04:00am 25.5 29.1 23.0 86 1.7 E 9 11 5 6 1006.2 - 0.0
30/03:30am 25.6 29.2 22.1 81 2.3 ESE 6 9 3 5 1006.5 - 0.0
30/03:00am 26.0 28.9 21.7 77 2.9 S 9 15 5 8 1006.6 - 0.0
30/02:30am 26.5 28.9 22.3 78 2.8 S 13 17 7 9 1007.1 - 0.0
30/02:00am 26.8 28.7 22.0 75 3.2 S 15 20 8 11 1007.5 - 0.0
30/01:30am 27.6 31.7 24.6 84 2.1 SW 11 15 6 8 1007.7 1007.1 0.0
30/01:00am 27.8 32.9 24.6 83 2.2 W 6 7 3 4 1008.1 - 0.0
30/12:30am 27.8 32.7 24.6 83 2.2 W 7 9 4 5 1008.4 - 0.0
30/12:00am 27.9 32.8 24.7 83 2.2 W 7 11 4 6 1008.7 - 0.0
 
Date/Time
CST
Temp
°C
App
Temp
°C
Dew
Point
Rel
Hum
%
Delta-T
°C
Wind Press
QNH
hPa
Press
MSL
hPa
Rain
since 9 am
mm
Dir
 
Spd
km/h
Gust
km/h
Spd
kts
Gust
kts
29/11:30pm 28.0 32.9 24.6 82 2.4 WSW 7 11 4 6 1008.7 - 0.0
29/11:00pm 28.1 32.7 24.7 82 2.4 W 9 13 5 7 1008.4 - 0.0
29/10:30pm 28.1 33.0 24.7 82 2.4 W 7 13 4 7 1008.4 1007.8 0.0
29/10:00pm 28.2 32.3 24.6 81 2.5 W 11 15 6 8 1008.0 - 0.0
29/09:30pm 28.3 32.1 24.1 78 2.9 W 11 15 6 8 1007.9 - 0.0
29/09:00pm 28.5 32.6 23.9 76 3.2 W 9 13 5 7 1007.3 - 0.0
29/08:30pm 28.3 33.0 24.3 79 2.8 NW 7 11 4 6 1006.8 - 0.0
29/08:00pm 28.4 32.8 24.4 79 2.8 NW 9 15 5 8 1006.1 - 0.0
29/07:30pm 28.5 32.4 23.6 75 3.4 NW 9 15 5 8 1005.4 1004.8 0.0
29/07:00pm 29.1 32.7 23.8 73 3.7 NW 11 17 6 9 1005.0 - 0.0
29/06:30pm 29.2 32.5 23.2 70 4.1 N 11 15 6 8 1004.7 - 0.0
29/06:00pm 29.4 32.0 22.6 67 4.6 NNW 13 19 7 10 1004.4 - 0.0
29/05:30pm 29.8 32.3 22.5 65 5.0 NNW 13 22 7 12 1004.0 - 0.0
29/05:00pm 30.4 33.9 22.8 64 5.2 NW 9 15 5 8 1003.9 - 0.0
29/04:30pm 30.2 32.8 22.6 63 5.2 WNW 13 17 7 9 1004.1 1003.6 0.0
29/04:00pm 30.3 32.8 21.7 60 5.8 WNW 11 17 6 9 1004.2 - 0.0
29/03:30pm 29.9 31.8 21.3 60 5.8 W 13 15 7 8 1004.6 - 0.0
29/03:00pm 29.8 32.7 22.5 65 5.0 WNW 11 17 6 9 1004.8 - 0.0
29/02:30pm 30.2 33.1 21.8 60 5.7 W 9 13 5 7 1005.2 - 0.0
29/02:00pm 30.1 32.6 21.7 60 5.7 W 11 15 6 8 1005.6 - 0.0
29/01:30pm 31.0 33.6 22.6 61 5.8 W 13 20 7 11 1006.1 1005.5 0.0
29/01:00pm 30.8 34.7 22.9 62 5.4 SE 7 11 4 6 1006.6 - 0.0
29/12:30pm 30.3 33.5 21.7 60 5.8 SW 7 17 4 9 1007.1 - 0.0
29/12:00pm 30.1 33.0 22.5 63 5.2 SSW 11 15 6 8 1007.5 - 0.0
29/11:30am 29.7 31.8 22.4 65 5.0 S 15 26 8 14 1007.9 - 0.0
29/11:00am 28.8 31.7 22.5 68 4.3 SE 11 15 6 8 1008.0 - 0.0
29/10:30am 28.2 31.1 23.1 74 3.5 SE 13 17 7 9 1008.2 1007.6 13.6
29/10:00am 28.1 31.4 22.6 72 3.7 SE 9 17 5 9 1008.6 - 13.6
29/09:30am 27.1 28.4 22.3 75 3.2 E 19 35 10 19 1008.5 - 13.6
29/09:00am 25.8 28.1 23.5 87 1.6 ESE 17 24 9 13 1008.7 - 13.6
29/08:30am 25.2 28.3 22.1 83 2.1 E 9 15 5 8 1008.3 - 13.6
29/08:00am 24.5 27.7 22.4 88 1.4 ESE 9 13 5 7 1007.6 - 13.6
29/07:30am 24.2 28.4 23.2 94 0.7 S 6 9 3 5 1006.9 1006.3 13.6
29/07:00am 23.9 28.1 23.2 96 0.5 S 6 9 3 5 1006.5 - 13.6
29/06:30am 23.9 27.9 22.7 93 0.8 SW 6 9 3 5 1005.9 - 13.2
29/06:00am 23.9 27.2 22.5 92 0.9 SW 9 11 5 6 1005.3 - 13.2
29/05:30am 24.1 27.0 22.4 90 1.1 S 11 15 6 8 1004.8 - 13.2
29/05:00am 23.9 26.4 23.2 96 0.5 SSW 15 22 8 12 1004.6 - 13.2
29/04:30am 23.9 26.6 23.4 97 0.3 SSW 15 20 8 11 1004.5 1004.0 13.2
29/04:00am 24.3 27.9 24.3 100 0.0 SSW 13 17 7 9 1004.1 - 13.2
29/03:30am 24.2 28.5 24.2 100 0.0 ESE 9 11 5 6 1004.3 - 13.0
29/03:00am 24.4 29.0 24.2 99 0.1 W 7 9 4 5 1004.8 - 13.0
29/02:30am 24.2 27.6 24.0 99 0.1 SW 13 17 7 9 1005.7 - 12.8
29/02:00am 24.1 27.2 24.1 100 0.0 SW 15 19 8 10 1006.2 - 12.2
29/01:30am 23.6 26.2 23.3 98 0.2 SW 15 20 8 11 1006.8 1006.2 11.6
29/01:00am 23.5 25.1 23.3 99 0.1 SSW 20 30 11 16 1007.1 - 11.0
29/12:30am 23.7 26.0 23.5 99 0.1 SSW 17 20 9 11 1007.6 - 9.6
29/12:00am 24.0 27.6 23.8 99 0.1 SSW 11 17 6 9 1007.5 - 7.6
 
Date/Time
CST
Temp
°C
App
Temp
°C
Dew
Point
Rel
Hum
%
Delta-T
°C
Wind Press
QNH
hPa
Press
MSL
hPa
Rain
since 9 am
mm
Dir
 
Spd
km/h
Gust
km/h
Spd
kts
Gust
kts
28/11:30pm 24.3 27.2 23.8 97 0.3 S 15 19 8 10 1007.1 - 6.8
28/11:00pm 24.7 26.6 23.8 95 0.6 SSW 20 30 11 16 1007.6 - 6.6
28/10:30pm 25.9 28.5 22.6 82 2.2 S 13 20 7 11 1007.2 1006.6 6.0
28/10:00pm 26.3 31.4 23.4 84 2.0 NW 2 7 1 4 1006.3 - 6.0
28/09:30pm 26.4 30.6 24.1 87 1.6 ESE 9 15 5 8 1006.5 - 6.0

Other Formats:

Comma delimited format used in spreadsheet applications
http://www.bom.gov.au/fwo/IDD60801/IDD60801.95101.axf

JavaScript Object Notation format (JSON) in row-major order
http://www.bom.gov.au/fwo/IDD60801/IDD60801.95101.json